WetterOnline ( http://www.wetteronline.de )

Wetter aktuell Enkenbach-Alsenborn

Aktuelles Wetter: Weinbiet/Pfalz (557m)

6-stündlich | Neueste Meldungen
Ortszeit Temperatur Wetter
Mo, 28.05. 8:00 19.1° C leicht bewölkt
Mo, 28.05. 2:00 19.2° C leicht bewölkt
So, 27.05. 20:00 21.0° C fast wolkenlos
So, 27.05. 14:00 26.6° C fast wolkenlos
So, 27.05. 8:00 19.0° C leicht bewölkt
So, 27.05. 2:00 19.0° C fast wolkenlos
Sa, 26.05. 20:00 23.7° C wolkenlos
Sa, 26.05. 14:00 24.4° C leicht bewölkt
Ortszeit Temperatur Wetter
Mo, 28.05. 10:00 21.5° C fast wolkenlos
Mo, 28.05. 9:40 20.5° C leicht bewölkt
Mo, 28.05. 9:30 20.7° C leicht bewölkt
Mo, 28.05. 9:20 20.7° C leicht bewölkt
Mo, 28.05. 9:10 20.5° C leicht bewölkt
Mo, 28.05. 9:00 20.6° C wolkig
Mo, 28.05. 8:50 20.6° C bewölkt
Mo, 28.05. 8:30 19.1° C wolkenlos
Mo, 28.05. 8:00 19.1° C leicht bewölkt
Mo, 28.05. 7:30 19.2° C wolkenlos
Mo, 28.05. 7:00 18.4° C wolkenlos
Ortszeit Relative Feuchte Sichtweite
Mo, 28.05. 8:00 78% 10 km
Mo, 28.05. 2:00 72% 10 km
So, 27.05. 20:00 69% 10 km
So, 27.05. 14:00 49% 10 km
So, 27.05. 8:00 70% 10 km
So, 27.05. 2:00 70% 10 km
Sa, 26.05. 20:00 50% 10 km
Sa, 26.05. 14:00 53% 10 km
Ortszeit Relative Feuchte Sichtweite
Mo, 28.05. 10:00 67% 10 km
Mo, 28.05. 9:40 68% -
Mo, 28.05. 9:30 68% 10 km
Mo, 28.05. 9:20 68% -
Mo, 28.05. 9:10 73% -
Mo, 28.05. 9:00 73% 10 km
Mo, 28.05. 8:50 73% -
Mo, 28.05. 8:30 76% 10 km
Mo, 28.05. 8:00 78% 10 km
Mo, 28.05. 7:30 74% 9 km
Mo, 28.05. 7:00 77% 9 km
Ortszeit Niederschlagsmenge Niederschlagsart
Mo, 28.05. 8:00 0.0 l/m2 in 12 Std. -
Mo, 28.05. 2:00 0.0 l/m2 in 6 Std. -
So, 27.05. 20:00 7 l/m2 in 12 Std. Regen
So, 27.05. 14:00 0.0 l/m2 in 6 Std. -
So, 27.05. 8:00 0.0 l/m2 in 12 Std. -
So, 27.05. 2:00 0.0 l/m2 in 6 Std. -
Sa, 26.05. 20:00 0.0 l/m2 in 12 Std. -
Sa, 26.05. 14:00 0.0 l/m2 in 6 Std. -
Ortszeit Niederschlagsmenge Niederschlagsart
Mo, 28.05. 10:00 0.0 l/m2 in 1 Std. -
Mo, 28.05. 9:40 keine Meldung -
Mo, 28.05. 9:30 0.0 l/m2 in 1 Std. -
Mo, 28.05. 9:20 keine Meldung -
Mo, 28.05. 9:10 keine Meldung -
Mo, 28.05. 9:00 0.0 l/m2 in 1 Std. -
Mo, 28.05. 8:50 keine Meldung -
Mo, 28.05. 8:30 0.0 l/m2 in 1 Std. -
Mo, 28.05. 8:00 0.0 l/m2 in 1 Std. -
Mo, 28.05. 7:30 0.0 l/m2 in 1 Std. -
Mo, 28.05. 7:00 0.0 l/m2 in 1 Std. -
Ortszeit Stärke Spitze Richtung
km/h Bft. km/h Grad Sektor
Mo, 28.05. 8:00 14 3 32 60° NO
Mo, 28.05. 2:00 13 3 31 10° N
So, 27.05. 20:00 13 3 26 70° O
So, 27.05. 14:00 14 3 25 130° SO
So, 27.05. 8:00 15 3 35 80° O
So, 27.05. 2:00 22 4 32 100° O
Sa, 26.05. 20:00 11 2 25 50° NO
Sa, 26.05. 14:00 13 3 28 110° O
Ortszeit Stärke Spitze Richtung
km/h Bft. km/h Grad Sektor
Mo, 28.05. 10:00 11 2 14 70° O
Mo, 28.05. 9:40 9 2 - 60° NO
Mo, 28.05. 9:30 11 2 14 70° O
Mo, 28.05. 9:20 11 2 - 70° O
Mo, 28.05. 9:10 9 2 - 70° O
Mo, 28.05. 9:00 7 2 18 80° O
Mo, 28.05. 8:50 7 2 - 80° O
Mo, 28.05. 8:30 9 2 17 70° O
Mo, 28.05. 8:00 14 3 18 60° NO
Mo, 28.05. 7:30 9 2 11 20° N
Mo, 28.05. 7:00 9 2 11 330° NW
Ortszeit Untergrenze Bedeckung Gattung
total tief tief mittel hoch
Mo, 28.05. 8:00 1500 m 3/8 3/8 - - -
Mo, 28.05. 2:00 3600 m 3/8 1/8 - - -
So, 27.05. 20:00 8400 m 2/8 0/8 - - -
So, 27.05. 14:00 10500 m 1/8 0/8 - - -
So, 27.05. 8:00 4200 m 2/8 1/8 - - -
So, 27.05. 2:00 9000 m 1/8 0/8 - - -
Sa, 26.05. 20:00 10500 m 0/8 0/8 - - -
Sa, 26.05. 14:00 5400 m 2/8 2/8 - - -
Ortszeit Bedeckungsgrad in Achtel und Wolkenuntergrenze
Mo, 28.05. 10:00 2(10500m)
Mo, 28.05. 9:40 1(3900m) 4(10500m)
Mo, 28.05. 9:30 3(3900m) 4(10500m)
Mo, 28.05. 9:20 3(3900m) 4(10500m)
Mo, 28.05. 9:10 3(3900m) 3(10500m) 5(10500m)
Mo, 28.05. 9:00 7(3900m)
Mo, 28.05. 8:50 7(3900m)
Mo, 28.05. 8:30 4(3900m)
Mo, 28.05. 8:00 3(1500m)
Mo, 28.05. 7:30 1(1470m)
Mo, 28.05. 7:00 keine Wolken
Ortszeit Luftdruck NN (hPa) Tendenz (hPa in 3 Std.)
Mo, 28.05. 8:00 1016 + 0,6
Mo, 28.05. 2:00 1017 - 0,6
So, 27.05. 20:00 1015 - 1,6
So, 27.05. 14:00 1016 - 1,0
So, 27.05. 8:00 1018 + 0,2
So, 27.05. 2:00 1019 - 1,0
Sa, 26.05. 20:00 1018 - 0,3
Sa, 26.05. 14:00 1019 + 0,4
Ortszeit Luftdruck NN (hPa) Tendenz (hPa in 3 Std.)
Mo, 28.05. 10:00 1016 + 0,6
Mo, 28.05. 9:40 1017 keine Meldung
Mo, 28.05. 9:30 1017 + 0,6
Mo, 28.05. 9:20 1017 keine Meldung
Mo, 28.05. 9:10 1017 keine Meldung
Mo, 28.05. 9:00 1017 + 0,3
Mo, 28.05. 8:50 1017 keine Meldung
Mo, 28.05. 8:30 1017 + 0,3
Mo, 28.05. 8:00 1016 + 0,6
Mo, 28.05. 7:30 1016 + 0,3
Mo, 28.05. 7:00 1017 + 0,2
Ortszeit Schneehöhe (cm)
Mo, 28.05. 8:00 -
Mo, 28.05. 2:00 -
So, 27.05. 20:00 -
So, 27.05. 14:00 -
So, 27.05. 8:00 -
So, 27.05. 2:00 -
Sa, 26.05. 20:00 -
Sa, 26.05. 14:00 -
Ortszeit Schneehöhe (cm)
Mo, 28.05. 10:00 -
Mo, 28.05. 9:40 -
Mo, 28.05. 9:30 -
Mo, 28.05. 9:20 -
Mo, 28.05. 9:10 -
Mo, 28.05. 9:00 -
Mo, 28.05. 8:50 -
Mo, 28.05. 8:30 -
Mo, 28.05. 8:00 -
Mo, 28.05. 7:30 -
Mo, 28.05. 7:00 -
Link zu dieser Seite / Seite empfehlen

Das Wetter in ...